Time;durP1;ratioP1;P1;durP2;ratioP2;P2;SDS_P1;SDS_P2;PMS_P1;PMS_P2;Temp;Humidity;BMP_temperature;BMP_pressure;BME280_temperature;BME280_humidity;BME280_pressure;Samples;Min_cycle;Max_cycle;Signal;HPM_P1;HPM_P2
2022/01/15 00:00:35;;;;;;;110.15;53.47;;;4.90;91.40;;;;;;4999612;28;20033;-75
2022/01/15 00:03:03;;;;;;;111.13;52.97;;;4.90;91.30;;;;;;4996714;28;20087;-80
2022/01/15 00:05:30;;;;;;;96.68;49.55;;;4.90;91.20;;;;;;5003040;28;20044;-78
2022/01/15 00:07:57;;;;;;;95.50;48.15;;;4.90;91.30;;;;;;5000896;28;20029;-75
2022/01/15 00:10:27;;;;;;;96.88;48.30;;;4.90;91.30;;;;;;5002898;28;20461;-78
2022/01/15 00:12:54;;;;;;;101.05;49.97;;;4.90;91.20;;;;;;5001416;28;21487;-78
2022/01/15 00:15:26;;;;;;;102.05;50.13;;;4.90;91.10;;;;;;5000819;28;20338;-76
2022/01/15 00:17:59;;;;;;;90.20;47.00;;;4.90;91.10;;;;;;4999757;28;20033;-76
2022/01/15 00:20:27;;;;;;;95.50;50.88;;;4.90;91.00;;;;;;4995522;28;20342;-78
2022/01/15 00:22:55;;;;;;;97.35;49.78;;;4.80;90.90;;;;;;4997544;28;20045;-77
2022/01/15 00:25:23;;;;;;;98.63;50.85;;;4.80;90.90;;;;;;4996042;28;20038;-77
2022/01/15 00:27:49;;;;;;;94.22;48.38;;;4.80;91.00;;;;;;4991726;28;20534;-80
2022/01/15 00:30:16;;;;;;;92.97;48.22;;;4.80;91.00;;;;;;4999410;28;20163;-78
2022/01/15 00:32:42;;;;;;;89.72;48.25;;;4.80;91.00;;;;;;4996387;28;20034;-78
2022/01/15 00:35:10;;;;;;;85.43;47.33;;;4.80;90.80;;;;;;4991653;28;20038;-79
2022/01/15 00:37:36;;;;;;;93.20;50.53;;;4.70;90.70;;;;;;4992205;28;20337;-78
2022/01/15 00:40:08;;;;;;;92.45;49.10;;;4.70;90.70;;;;;;4991471;28;20030;-76
2022/01/15 00:42:39;;;;;;;92.38;48.85;;;4.80;90.80;;;;;;4992649;28;20048;-76
2022/01/15 00:45:10;;;;;;;90.28;47.92;;;4.80;90.70;;;;;;4993422;28;20495;-76
2022/01/15 00:47:35;;;;;;;96.88;49.20;;;4.80;90.80;;;;;;4993369;28;20368;-79
2022/01/15 00:50:03;;;;;;;94.63;47.47;;;4.80;90.60;;;;;;4993334;28;20041;-76
2022/01/15 00:52:29;;;;;;;95.57;48.92;;;4.90;90.70;;;;;;4992990;28;20382;-78
2022/01/15 00:54:57;;;;;;;91.68;47.47;;;4.90;90.60;;;;;;4993876;28;20036;-79
2022/01/15 00:57:26;;;;;;;94.90;49.85;;;4.90;90.60;;;;;;4991265;28;20099;-79
2022/01/15 00:59:54;;;;;;;88.30;46.88;;;4.80;90.60;;;;;;4992376;28;20454;-76
2022/01/15 01:02:21;;;;;;;100.38;50.60;;;4.80;90.50;;;;;;4992263;28;20084;-78
2022/01/15 01:04:49;;;;;;;98.07;49.60;;;4.90;90.50;;;;;;4991524;28;20083;-76
2022/01/15 01:07:17;;;;;;;94.03;48.45;;;4.90;90.50;;;;;;4990692;28;20415;-78
2022/01/15 01:23:00;;;;;;;86.60;46.08;;;4.80;90.50;;;;;;4994438;28;20064;-77
2022/01/15 01:25:34;;;;;;;88.82;47.75;;;4.80;90.40;;;;;;4995018;28;20130;-75
2022/01/15 01:28:08;;;;;;;83.40;46.28;;;4.80;90.30;;;;;;4993324;28;20068;-77
2022/01/15 01:30:59;;;;;;;90.30;46.42;;;4.80;90.30;;;;;;5001894;28;20041;-77
2022/01/15 01:33:35;;;;;;;87.50;45.50;;;4.70;90.20;;;;;;4996995;28;20037;-78
2022/01/15 01:36:14;;;;;;;83.18;44.53;;;4.70;90.10;;;;;;5009475;28;20470;-78
2022/01/15 01:41:21;;;;;;;80.38;43.78;;;4.60;90.00;;;;;;4996784;28;20635;-79
2022/01/15 01:43:59;;;;;;;81.10;44.67;;;4.60;90.00;;;;;;4997065;28;20509;-75
2022/01/15 01:48:58;;;;;;;82.53;45.42;;;4.70;90.00;;;;;;5007296;28;20304;-75
2022/01/15 01:51:35;;;;;;;81.80;44.97;;;4.70;89.80;;;;;;4999759;28;20048;-75
2022/01/15 01:54:08;;;;;;;85.25;44.92;;;4.70;89.80;;;;;;5004496;28;20030;-74
2022/01/15 01:56:36;;;;;;;80.28;44.35;;;4.70;89.80;;;;;;5014503;28;20034;-74
2022/01/15 01:59:07;;;;;;;84.03;45.05;;;4.70;89.80;;;;;;5006309;28;20045;-79
2022/01/15 02:01:34;;;;;;;82.50;43.97;;;4.60;89.90;;;;;;5009066;28;20021;-75
2022/01/15 02:04:02;;;;;;;79.45;41.33;;;4.70;90.00;;;;;;5011323;28;20033;-75
2022/01/15 02:06:32;;;;;;;79.25;41.25;;;4.70;90.00;;;;;;5005827;28;20081;-75
2022/01/15 02:09:02;;;;;;;79.38;41.50;;;4.70;90.00;;;;;;5004934;28;20025;-75
2022/01/15 02:11:30;;;;;;;80.72;41.63;;;4.70;90.00;;;;;;5000414;28;20396;-75
2022/01/15 02:13:59;;;;;;;78.70;42.67;;;4.70;90.00;;;;;;5000278;28;20045;-74
2022/01/15 02:16:27;;;;;;;74.82;37.85;;;4.70;90.10;;;;;;5013342;28;20342;-76
2022/01/15 02:18:55;;;;;;;72.47;39.20;;;4.70;90.10;;;;;;4998454;28;20116;-79
2022/01/15 02:24:12;;;;;;;76.60;39.22;;;4.70;90.10;;;;;;5001975;28;20080;-75
2022/01/15 02:26:39;;;;;;;83.95;43.75;;;4.80;90.10;;;;;;5009130;28;20069;-74
2022/01/15 02:29:09;;;;;;;82.20;42.45;;;4.70;89.90;;;;;;5008397;28;20143;-73
2022/01/15 02:31:37;;;;;;;83.60;41.25;;;4.70;89.80;;;;;;4997639;28;20041;-78
2022/01/15 02:34:06;;;;;;;80.60;42.75;;;4.70;89.90;;;;;;5000642;28;20041;-74
2022/01/15 02:36:36;;;;;;;84.38;43.97;;;4.60;89.90;;;;;;5005420;28;20032;-75
2022/01/15 02:39:06;;;;;;;80.18;44.22;;;4.60;89.80;;;;;;5002105;28;20021;-75
2022/01/15 02:41:34;;;;;;;81.28;44.10;;;4.60;90.00;;;;;;5003675;28;20041;-75
2022/01/15 02:44:05;;;;;;;85.10;46.28;;;4.60;89.90;;;;;;5004486;28;20041;-77
2022/01/15 02:49:04;;;;;;;79.22;42.83;;;4.60;90.10;;;;;;5010892;28;20550;-74
2022/01/15 02:51:34;;;;;;;82.20;43.97;;;4.60;90.20;;;;;;4998840;28;20037;-73
2022/01/15 02:54:03;;;;;;;86.00;44.50;;;4.60;90.20;;;;;;5008073;28;20124;-74
2022/01/15 02:56:37;;;;;;;83.45;44.15;;;4.60;90.30;;;;;;4998316;28;20030;-73
2022/01/15 02:59:07;;;;;;;83.93;42.80;;;4.70;90.30;;;;;;5012548;28;20373;-73
2022/01/15 03:01:33;;;;;;;81.60;44.45;;;4.70;90.30;;;;;;5006567;28;20033;-73
2022/01/15 03:04:01;;;;;;;88.63;46.13;;;4.70;90.30;;;;;;5000348;28;20771;-73
2022/01/15 03:06:29;;;;;;;92.90;48.85;;;4.70;90.20;;;;;;5004772;28;20029;-73
2022/01/15 03:08:57;;;;;;;88.20;47.00;;;4.60;90.10;;;;;;5008142;28;20055;-74
2022/01/15 03:11:28;;;;;;;91.97;45.90;;;4.60;89.90;;;;;;5008818;28;20116;-77
2022/01/15 03:13:56;;;;;;;81.75;43.95;;;4.60;90.00;;;;;;5003841;28;20041;-74
2022/01/15 03:16:24;;;;;;;96.22;48.25;;;4.60;90.00;;;;;;5007828;28;20413;-79
2022/01/15 03:18:52;;;;;;;90.53;45.30;;;4.60;90.00;;;;;;5008017;28;20017;-74
2022/01/15 03:21:20;;;;;;;89.95;46.10;;;4.60;90.10;;;;;;5009601;28;22049;-74
2022/01/15 03:23:48;;;;;;;94.55;47.22;;;4.60;90.20;;;;;;5002527;28;20555;-74
2022/01/15 03:26:16;;;;;;;86.13;46.25;;;4.60;90.10;;;;;;5001624;28;20042;-79
2022/01/15 03:28:43;;;;;;;84.30;43.88;;;4.60;90.20;;;;;;5003639;28;20282;-79
2022/01/15 03:31:11;;;;;;;93.15;46.78;;;4.60;90.10;;;;;;4996943;28;20032;-75
2022/01/15 03:33:40;;;;;;;87.38;44.95;;;4.60;90.10;;;;;;5001025;28;20465;-75
2022/01/15 03:36:09;;;;;;;88.40;47.25;;;4.60;90.00;;;;;;5007126;28;20033;-75
2022/01/15 03:38:37;;;;;;;89.63;45.53;;;4.60;90.00;;;;;;5002886;28;20058;-74
2022/01/15 03:41:06;;;;;;;98.35;49.65;;;4.60;89.90;;;;;;5011567;28;20025;-75
2022/01/15 03:43:34;;;;;;;93.25;47.75;;;4.50;89.90;;;;;;5001014;28;20045;-74
2022/01/15 03:46:02;;;;;;;95.90;48.05;;;4.50;90.10;;;;;;5000073;28;20028;-74
2022/01/15 03:48:29;;;;;;;88.80;46.78;;;4.50;90.10;;;;;;5006380;28;20033;-75
2022/01/15 03:50:57;;;;;;;92.82;48.58;;;4.60;90.10;;;;;;5006240;28;20494;-78
2022/01/15 03:53:24;;;;;;;93.10;49.55;;;4.50;90.10;;;;;;4998409;28;20025;-77
2022/01/15 03:55:52;;;;;;;94.90;47.78;;;4.50;90.20;;;;;;4999364;28;20091;-74
2022/01/15 03:58:19;;;;;;;90.25;47.45;;;4.50;90.20;;;;;;4999397;28;20030;-73
2022/01/15 04:00:48;;;;;;;90.38;46.88;;;4.50;90.20;;;;;;5002294;28;20029;-76
2022/01/15 04:03:16;;;;;;;87.47;44.85;;;4.60;90.30;;;;;;5010016;28;20042;-74
2022/01/15 04:05:43;;;;;;;84.80;44.58;;;4.60;90.30;;;;;;5007324;28;20029;-76
2022/01/15 04:08:11;;;;;;;89.65;46.15;;;4.60;90.30;;;;;;5004301;28;20033;-74
2022/01/15 04:10:42;;;;;;;88.88;44.70;;;4.60;90.20;;;;;;5001964;28;20372;-74
2022/01/15 04:13:11;;;;;;;85.63;45.05;;;4.60;90.20;;;;;;5000822;28;20036;-74
2022/01/15 04:15:37;;;;;;;89.63;45.83;;;4.60;90.30;;;;;;5011021;28;20479;-74
2022/01/15 04:18:06;;;;;;;88.35;45.20;;;4.60;90.30;;;;;;4997667;28;20022;-75
2022/01/15 04:20:34;;;;;;;83.88;45.42;;;4.60;90.30;;;;;;5004698;28;20109;-74
2022/01/15 04:23:01;;;;;;;88.15;44.50;;;4.50;90.20;;;;;;5002688;28;20029;-74
2022/01/15 04:25:29;;;;;;;88.57;45.45;;;4.40;90.10;;;;;;5003394;28;20529;-74
2022/01/15 04:27:59;;;;;;;89.30;42.90;;;4.40;90.00;;;;;;4999131;28;20026;-75
2022/01/15 04:30:26;;;;;;;86.85;42.70;;;4.30;89.90;;;;;;4996529;28;20118;-74
2022/01/15 04:32:53;;;;;;;92.80;44.70;;;4.30;90.00;;;;;;4996968;28;20513;-74
2022/01/15 04:35:20;;;;;;;86.20;42.22;;;4.30;89.90;;;;;;4999260;28;20041;-74
2022/01/15 04:37:53;;;;;;;96.50;46.72;;;4.20;90.10;;;;;;5012186;28;20041;-74
2022/01/15 04:40:21;;;;;;;88.15;44.15;;;4.20;90.10;;;;;;5002011;28;20052;-73
2022/01/15 04:42:48;;;;;;;92.95;46.10;;;4.20;90.20;;;;;;5000815;28;20061;-73
2022/01/15 04:45:17;;;;;;;100.85;46.65;;;4.20;90.10;;;;;;5011146;28;20036;-73
2022/01/15 04:47:43;;;;;;;99.63;47.30;;;4.20;90.10;;;;;;5031998;28;20034;-74
2022/01/15 04:50:13;;;;;;;95.15;48.10;;;4.20;90.10;;;;;;5034622;28;20434;-73
2022/01/15 04:52:41;;;;;;;98.82;47.88;;;4.10;90.10;;;;;;5005712;28;20034;-73
2022/01/15 04:55:11;;;;;;;103.03;49.00;;;4.10;90.10;;;;;;5004029;28;20041;-77
2022/01/15 04:57:40;;;;;;;102.90;47.33;;;4.10;90.30;;;;;;5006664;28;20029;-75
2022/01/15 05:00:17;;;;;;;105.72;50.38;;;4.10;90.20;;;;;;5000050;28;20033;-79
2022/01/15 05:02:45;;;;;;;100.63;48.90;;;4.00;90.50;;;;;;4995512;28;20627;-76
2022/01/15 05:05:13;;;;;;;106.38;49.47;;;4.10;90.50;;;;;;5004873;28;20496;-80
2022/01/15 05:07:43;;;;;;;104.13;48.78;;;4.10;90.40;;;;;;5004679;28;20037;-75
2022/01/15 05:10:16;;;;;;;99.88;49.35;;;4.10;90.40;;;;;;5003768;28;20030;-75
2022/01/15 05:12:47;;;;;;;96.97;49.17;;;4.10;90.40;;;;;;4999466;28;20212;-75
2022/01/15 05:15:17;;;;;;;109.30;49.80;;;4.10;90.30;;;;;;4997488;28;20449;-75
2022/01/15 05:17:44;;;;;;;105.13;51.25;;;4.10;90.40;;;;;;5012142;28;20030;-74
2022/01/15 05:20:11;;;;;;;108.35;51.20;;;4.10;90.40;;;;;;5015727;28;20049;-75
2022/01/15 05:22:37;;;;;;;115.80;53.38;;;4.00;90.50;;;;;;5011729;28;20048;-74
2022/01/15 05:25:07;;;;;;;113.95;50.92;;;4.00;90.40;;;;;;4997236;28;20029;-75
2022/01/15 05:27:34;;;;;;;108.20;51.20;;;4.00;90.50;;;;;;4997444;28;20033;-74
2022/01/15 05:30:00;;;;;;;110.50;50.25;;;4.00;90.60;;;;;;5003195;28;20022;-74
2022/01/15 05:32:26;;;;;;;115.35;52.75;;;3.90;90.60;;;;;;5005928;28;20029;-78
2022/01/15 05:34:51;;;;;;;113.00;53.35;;;3.90;90.70;;;;;;5003475;28;20045;-75
2022/01/15 05:37:17;;;;;;;113.78;50.00;;;3.90;90.80;;;;;;5001930;28;20120;-74
2022/01/15 05:39:43;;;;;;;118.63;53.42;;;3.90;90.80;;;;;;5002765;28;20037;-78
2022/01/15 05:42:09;;;;;;;117.05;52.00;;;3.80;90.80;;;;;;5008878;28;20518;-80
2022/01/15 05:44:35;;;;;;;125.78;54.38;;;3.80;91.00;;;;;;5007073;28;20045;-79
2022/01/15 05:47:01;;;;;;;124.85;53.72;;;3.80;91.10;;;;;;5011569;28;20168;-73
2022/01/15 05:49:29;;;;;;;121.63;54.45;;;3.80;91.00;;;;;;5007494;28;20049;-79
2022/01/15 05:51:54;;;;;;;117.68;55.38;;;3.80;91.00;;;;;;5001374;28;20057;-74
2022/01/15 05:54:20;;;;;;;121.88;52.13;;;3.90;91.00;;;;;;5007943;28;20140;-74
2022/01/15 05:56:46;;;;;;;116.22;54.25;;;3.90;90.80;;;;;;5003010;28;20043;-78
2022/01/15 05:59:12;;;;;;;121.05;55.45;;;3.90;90.70;;;;;;5006341;28;21344;-74
2022/01/15 06:01:38;;;;;;;116.28;51.55;;;3.90;90.80;;;;;;5005457;28;20044;-73
2022/01/15 06:04:05;;;;;;;113.18;51.85;;;3.90;90.90;;;;;;5013536;28;20116;-73
2022/01/15 06:06:31;;;;;;;113.15;49.17;;;3.80;90.80;;;;;;5004481;28;20021;-74
2022/01/15 06:08:56;;;;;;;116.05;53.13;;;3.80;90.90;;;;;;5007290;28;20195;-73
2022/01/15 06:11:23;;;;;;;118.15;49.65;;;3.80;90.90;;;;;;5006873;28;20113;-74
2022/01/15 06:13:49;;;;;;;120.65;55.13;;;3.80;91.00;;;;;;5003387;28;20372;-74
2022/01/15 06:16:15;;;;;;;112.70;49.08;;;3.80;91.10;;;;;;5008044;28;21471;-75
2022/01/15 06:18:41;;;;;;;121.32;52.92;;;3.80;91.20;;;;;;5004820;28;20038;-80
2022/01/15 06:21:08;;;;;;;116.03;50.00;;;3.80;91.10;;;;;;5003991;28;20029;-79
2022/01/15 06:23:34;;;;;;;113.18;51.55;;;3.80;91.20;;;;;;5002841;28;21271;-75
2022/01/15 06:26:00;;;;;;;121.75;51.78;;;3.90;91.20;;;;;;5009489;28;20449;-74
2022/01/15 06:28:26;;;;;;;115.25;48.80;;;3.80;91.10;;;;;;4996708;28;20096;-74
2022/01/15 06:30:52;;;;;;;106.63;47.72;;;3.80;91.10;;;;;;5004582;28;20440;-74
2022/01/15 06:33:18;;;;;;;119.47;48.55;;;3.80;91.30;;;;;;5001152;28;20025;-73
2022/01/15 06:35:44;;;;;;;120.28;49.22;;;3.80;91.30;;;;;;4999015;28;20100;-73
2022/01/15 06:38:09;;;;;;;118.40;48.92;;;3.80;91.30;;;;;;5002995;28;20033;-75
2022/01/15 06:40:35;;;;;;;116.65;48.38;;;3.80;91.30;;;;;;5008890;28;20068;-74
2022/01/15 06:43:02;;;;;;;125.63;49.40;;;3.80;91.30;;;;;;5011913;28;20037;-74
2022/01/15 06:45:28;;;;;;;125.68;50.05;;;3.80;91.40;;;;;;5014609;28;20049;-75
2022/01/15 06:47:54;;;;;;;129.70;50.50;;;3.80;91.40;;;;;;5004907;28;20026;-73
2022/01/15 06:50:22;;;;;;;120.03;52.85;;;3.80;91.40;;;;;;5005118;28;20112;-73
2022/01/15 06:52:48;;;;;;;117.47;51.72;;;3.80;91.60;;;;;;5006755;28;20069;-75
2022/01/15 06:55:14;;;;;;;148.93;73.18;;;3.80;91.60;;;;;;5001626;28;20610;-75
2022/01/15 06:57:40;;;;;;;135.68;58.33;;;3.80;91.60;;;;;;4999430;28;20377;-74
2022/01/15 07:00:08;;;;;;;140.63;68.65;;;3.70;91.70;;;;;;4997646;28;20038;-75
2022/01/15 07:02:33;;;;;;;122.80;54.58;;;3.80;91.60;;;;;;5006660;28;20034;-74
2022/01/15 07:04:59;;;;;;;120.57;50.40;;;3.80;91.60;;;;;;5007892;28;20088;-74
2022/01/15 07:07:26;;;;;;;119.55;49.67;;;3.80;91.70;;;;;;5027888;28;20029;-75
2022/01/15 07:09:51;;;;;;;116.47;49.30;;;3.80;91.80;;;;;;5004730;28;20456;-73
2022/01/15 07:12:18;;;;;;;114.60;49.33;;;3.80;91.80;;;;;;5002941;28;20029;-78
2022/01/15 07:14:43;;;;;;;98.10;45.40;;;3.80;91.80;;;;;;5004134;28;20041;-79
2022/01/15 07:17:10;;;;;;;101.45;44.92;;;3.80;91.80;;;;;;4998283;28;20083;-75
2022/01/15 07:19:36;;;;;;;111.20;45.10;;;3.70;91.80;;;;;;4990172;28;20026;-74
2022/01/15 07:22:03;;;;;;;116.90;47.67;;;3.70;91.60;;;;;;4999871;28;20029;-74
2022/01/15 07:24:29;;;;;;;113.97;50.83;;;3.70;91.70;;;;;;5001995;28;20491;-74
2022/01/15 07:26:55;;;;;;;107.40;45.53;;;3.60;91.70;;;;;;4999580;28;20076;-74
2022/01/15 07:29:22;;;;;;;117.75;50.80;;;3.60;91.70;;;;;;5023271;28;21879;-74
2022/01/15 07:31:48;;;;;;;125.78;51.85;;;3.60;91.80;;;;;;5006316;28;20040;-75
2022/01/15 07:34:15;;;;;;;120.10;47.72;;;3.60;91.70;;;;;;4996415;28;20034;-74
2022/01/15 07:36:40;;;;;;;131.93;53.10;;;3.60;91.90;;;;;;5011728;28;20442;-75
2022/01/15 07:39:08;;;;;;;117.47;51.97;;;3.70;91.90;;;;;;4997211;28;20057;-74
2022/01/15 07:41:35;;;;;;;120.18;49.03;;;3.60;92.00;;;;;;4996895;28;20045;-74
2022/01/15 07:44:00;;;;;;;132.23;52.38;;;3.70;92.10;;;;;;5001841;28;20064;-75
2022/01/15 07:46:26;;;;;;;137.50;51.85;;;3.60;92.00;;;;;;4996689;28;20033;-74
2022/01/15 07:48:53;;;;;;;125.72;52.92;;;3.60;92.10;;;;;;4999491;28;20037;-74
2022/01/15 07:51:18;;;;;;;110.97;46.17;;;3.60;92.20;;;;;;5009249;28;20121;-74
2022/01/15 07:53:44;;;;;;;107.78;45.28;;;3.60;92.00;;;;;;5012058;28;20030;-74
2022/01/15 07:56:10;;;;;;;114.80;47.78;;;3.60;92.00;;;;;;5007482;28;20026;-75
2022/01/15 07:58:36;;;;;;;120.50;48.55;;;3.50;91.80;;;;;;5003101;28;20062;-74
2022/01/15 08:01:02;;;;;;;118.43;48.67;;;3.60;91.90;;;;;;5000459;28;20111;-78
2022/01/15 08:03:28;;;;;;;124.82;52.78;;;3.60;91.90;;;;;;5003711;28;20076;-74
2022/01/15 08:05:54;;;;;;;115.43;48.75;;;3.50;92.00;;;;;;5004623;28;20029;-78
2022/01/15 08:08:19;;;;;;;116.00;46.00;;;3.50;92.10;;;;;;4992814;28;20155;-77
2022/01/15 08:10:45;;;;;;;124.32;47.53;;;3.60;92.00;;;;;;4992729;28;20238;-74
2022/01/15 08:13:11;;;;;;;112.72;46.45;;;3.50;92.00;;;;;;4994503;28;20068;-73
2022/01/15 08:15:37;;;;;;;120.97;47.03;;;3.50;92.00;;;;;;4996138;28;20068;-78
2022/01/15 08:18:03;;;;;;;123.50;50.35;;;3.50;92.00;;;;;;4991282;28;20153;-76
2022/01/15 08:20:30;;;;;;;118.53;48.65;;;3.50;92.10;;;;;;4989044;28;20969;-77
2022/01/15 08:22:55;;;;;;;127.80;48.83;;;3.50;92.20;;;;;;4993483;28;20902;-77
2022/01/15 08:25:22;;;;;;;109.25;44.53;;;3.50;92.10;;;;;;4995073;28;20053;-75
2022/01/15 08:27:48;;;;;;;112.18;45.28;;;3.50;92.10;;;;;;5004078;28;20284;-75
2022/01/15 08:30:15;;;;;;;99.65;42.42;;;3.30;91.70;;;;;;4999572;28;20042;-74
2022/01/15 08:32:41;;;;;;;114.15;45.10;;;3.40;91.90;;;;;;4996164;28;20042;-75
2022/01/15 08:35:08;;;;;;;119.30;45.83;;;3.40;92.00;;;;;;4993697;28;20033;-75
2022/01/15 08:37:37;;;;;;;134.38;49.13;;;3.40;91.90;;;;;;4995476;28;20646;-75
2022/01/15 08:40:05;;;;;;;108.55;44.33;;;3.40;91.80;;;;;;4999160;28;20026;-77
2022/01/15 08:42:31;;;;;;;113.35;45.97;;;3.40;92.10;;;;;;4994832;28;20575;-74
2022/01/15 08:44:56;;;;;;;122.63;46.58;;;3.40;92.10;;;;;;4997517;28;20033;-77
2022/01/15 08:47:22;;;;;;;109.90;43.85;;;3.50;92.00;;;;;;4997455;28;20039;-74
2022/01/15 08:49:48;;;;;;;114.75;43.53;;;3.50;91.80;;;;;;5004276;28;20485;-71
2022/01/15 08:52:13;;;;;;;105.18;43.88;;;3.50;91.80;;;;;;5017040;28;20116;-72
2022/01/15 08:54:39;;;;;;;105.28;44.17;;;3.50;91.80;;;;;;5007225;28;20045;-77
2022/01/15 08:57:05;;;;;;;107.70;43.08;;;3.50;91.80;;;;;;5016928;28;20153;-76
2022/01/15 08:59:30;;;;;;;110.53;43.97;;;3.50;91.70;;;;;;4994862;28;20038;-76
2022/01/15 09:01:58;;;;;;;115.10;44.80;;;3.50;91.80;;;;;;4995078;28;20025;-74
2022/01/15 09:04:24;;;;;;;117.47;44.55;;;3.60;91.90;;;;;;5006140;28;20452;-74
2022/01/15 09:06:50;;;;;;;111.60;45.65;;;3.70;91.90;;;;;;5016795;28;20025;-71
2022/01/15 09:09:15;;;;;;;107.18;43.10;;;3.60;91.50;;;;;;5035729;28;20033;-72
2022/01/15 09:11:41;;;;;;;96.18;41.33;;;3.50;91.40;;;;;;5007320;28;20612;-76
2022/01/15 09:14:08;;;;;;;98.70;42.17;;;3.60;91.50;;;;;;4993522;28;20484;-78
2022/01/15 09:16:34;;;;;;;93.22;39.40;;;3.60;91.10;;;;;;4996465;28;20462;-73
2022/01/15 09:18:59;;;;;;;91.00;39.38;;;3.50;91.00;;;;;;5002864;28;20030;-75
2022/01/15 09:21:25;;;;;;;93.40;39.38;;;3.50;91.10;;;;;;5003151;28;20044;-75
2022/01/15 09:23:51;;;;;;;83.25;37.53;;;3.60;91.20;;;;;;4997756;28;20049;-75
2022/01/15 09:26:45;;;;;;;82.10;37.15;;;3.50;91.10;;;;;;4994418;28;20034;-77
2022/01/15 09:31:50;;;;;;;80.18;38.35;;;3.50;90.70;;;;;;4995995;28;20056;-77
2022/01/15 09:34:15;;;;;;;76.80;36.13;;;3.40;90.30;;;;;;4994339;28;20485;-76
2022/01/15 09:36:41;;;;;;;79.18;35.78;;;3.40;90.20;;;;;;4996160;28;20030;-75
2022/01/15 09:39:07;;;;;;;81.28;37.30;;;3.30;89.80;;;;;;4996178;28;20547;-77
2022/01/15 09:41:35;;;;;;;77.43;35.63;;;3.30;90.10;;;;;;4998071;28;20056;-77
2022/01/15 09:44:05;;;;;;;85.72;38.42;;;3.30;89.90;;;;;;5003621;28;20041;-75
2022/01/15 09:46:32;;;;;;;80.40;38.78;;;3.40;90.20;;;;;;5002936;28;20384;-79
2022/01/15 09:49:00;;;;;;;85.13;38.92;;;3.30;90.10;;;;;;5005252;28;20226;-76
2022/01/15 09:51:27;;;;;;;85.65;39.92;;;3.40;90.10;;;;;;5006180;28;20030;-77
2022/01/15 09:53:54;;;;;;;74.88;35.95;;;3.60;90.30;;;;;;4998828;28;20038;-75
2022/01/15 09:56:19;;;;;;;75.57;36.65;;;3.60;89.90;;;;;;5003541;28;20037;-80
2022/01/15 09:58:45;;;;;;;75.25;36.83;;;3.70;89.80;;;;;;5005635;28;20046;-75
2022/01/15 10:01:11;;;;;;;75.38;35.65;;;3.80;89.40;;;;;;5006230;28;20025;-79
2022/01/15 10:03:37;;;;;;;78.45;36.72;;;3.90;89.50;;;;;;5004074;28;20045;-78
2022/01/15 10:06:05;;;;;;;78.95;40.25;;;3.90;88.70;;;;;;5004383;28;20038;-75
2022/01/15 10:08:31;;;;;;;77.45;38.10;;;3.90;88.30;;;;;;5009498;28;20044;-77
2022/01/15 10:10:59;;;;;;;76.55;37.50;;;4.00;88.50;;;;;;5009554;28;20231;-75
2022/01/15 10:13:30;;;;;;;72.82;38.55;;;4.00;88.50;;;;;;5000244;28;20467;-74
2022/01/15 10:15:55;;;;;;;79.18;37.97;;;4.00;88.30;;;;;;5002871;28;20642;-76
2022/01/15 10:18:29;;;;;;;74.03;37.65;;;3.90;87.80;;;;;;5005330;28;20042;-77
2022/01/15 10:21:11;;;;;;;73.07;38.47;;;4.00;87.90;;;;;;5009199;28;20037;-76
2022/01/15 10:23:57;;;;;;;73.88;37.08;;;4.10;88.00;;;;;;5006434;28;20030;-77
2022/01/15 10:26:25;;;;;;;71.80;37.00;;;4.10;87.30;;;;;;5005388;28;20034;-76
2022/01/15 10:29:02;;;;;;;73.35;37.53;;;4.30;87.90;;;;;;5008666;28;20481;-75
2022/01/15 10:31:33;;;;;;;64.05;35.42;;;4.60;87.80;;;;;;5001654;28;20458;-77
2022/01/15 10:34:20;;;;;;;59.67;33.95;;;4.70;86.20;;;;;;5007587;28;20034;-74
2022/01/15 10:36:46;;;;;;;56.95;34.30;;;4.70;85.10;;;;;;5006577;28;20124;-76
2022/01/15 10:39:14;;;;;;;60.22;35.10;;;4.60;84.80;;;;;;5001941;28;20026;-75
2022/01/15 10:41:40;;;;;;;63.03;34.90;;;4.40;84.00;;;;;;5006554;28;20463;-74
2022/01/15 10:44:28;;;;;;;63.53;34.55;;;4.40;84.90;;;;;;5004092;28;20890;-74
2022/01/15 10:47:02;;;;;;;56.55;33.47;;;4.50;84.60;;;;;;5002150;28;20526;-73
2022/01/15 10:49:29;;;;;;;60.17;33.00;;;4.60;84.60;;;;;;5004207;28;20043;-78
2022/01/15 10:52:17;;;;;;;56.20;34.42;;;4.60;84.50;;;;;;5002554;28;20036;-74
2022/01/15 10:55:00;;;;;;;66.10;34.00;;;4.60;84.20;;;;;;4997237;28;20139;-76
2022/01/15 10:57:32;;;;;;;60.33;33.67;;;4.60;84.20;;;;;;4996011;28;20207;-75
2022/01/15 11:00:05;;;;;;;63.08;34.58;;;4.60;84.20;;;;;;5007430;28;20102;-75
2022/01/15 11:02:32;;;;;;;59.40;34.28;;;4.70;84.70;;;;;;4995831;28;20061;-75
2022/01/15 11:04:58;;;;;;;57.20;34.03;;;4.70;84.40;;;;;;5003388;28;20573;-75
2022/01/15 11:07:24;;;;;;;59.05;34.63;;;4.80;84.10;;;;;;5004422;28;20033;-76
2022/01/15 11:09:51;;;;;;;62.58;35.35;;;5.00;84.90;;;;;;5007835;28;20111;-74
2022/01/15 11:12:18;;;;;;;60.30;35.70;;;5.10;83.60;;;;;;5007011;28;20606;-71
2022/01/15 11:14:44;;;;;;;61.25;35.22;;;5.40;83.00;;;;;;5007746;28;20450;-75
2022/01/15 11:17:09;;;;;;;61.20;34.70;;;5.60;83.20;;;;;;5002503;28;20144;-73
2022/01/15 11:19:36;;;;;;;58.08;34.33;;;5.70;82.30;;;;;;5003054;28;20364;-73
2022/01/15 11:22:03;;;;;;;55.70;34.55;;;5.90;82.40;;;;;;5002549;28;20041;-75
2022/01/15 11:24:30;;;;;;;51.42;33.03;;;5.70;81.50;;;;;;5007738;28;20040;-74
2022/01/15 11:26:58;;;;;;;54.55;32.85;;;5.70;81.50;;;;;;5009175;28;20484;-73
2022/01/15 11:29:25;;;;;;;53.75;33.70;;;5.60;81.60;;;;;;5006871;28;20030;-76
2022/01/15 11:31:58;;;;;;;49.92;29.67;;;5.60;82.10;;;;;;5007637;28;20033;-76
2022/01/15 11:34:24;;;;;;;48.08;31.05;;;5.60;82.30;;;;;;5007869;28;20076;-78
2022/01/15 11:36:51;;;;;;;46.65;31.30;;;5.70;81.60;;;;;;5005667;28;20033;-77
2022/01/15 11:39:33;;;;;;;47.03;30.02;;;5.70;81.60;;;;;;5001362;28;20044;-75
2022/01/15 11:42:01;;;;;;;47.28;31.17;;;5.60;81.10;;;;;;5003108;28;20025;-79
2022/01/15 11:44:33;;;;;;;49.72;33.72;;;5.60;81.90;;;;;;5003691;28;20337;-75
2022/01/15 11:47:23;;;;;;;49.22;32.58;;;5.80;81.50;;;;;;5002313;28;20824;-77
2022/01/15 11:49:51;;;;;;;50.85;31.80;;;5.80;80.80;;;;;;5002938;28;20042;-76
2022/01/15 11:52:19;;;;;;;47.85;32.85;;;5.90;81.30;;;;;;4998516;28;20064;-75
2022/01/15 11:54:51;;;;;;;44.22;30.77;;;5.90;80.60;;;;;;4998194;28;20038;-78
2022/01/15 11:57:24;;;;;;;49.92;33.60;;;5.90;80.50;;;;;;4998504;28;20037;-74
2022/01/15 11:59:52;;;;;;;45.40;32.63;;;6.00;80.50;;;;;;5001975;28;20335;-76
2022/01/15 12:02:56;;;;;;;46.80;31.90;;;5.90;80.80;;;;;;4996597;28;20218;-76
2022/01/15 12:05:21;;;;;;;43.33;30.73;;;6.00;80.60;;;;;;5000181;28;20090;-78
2022/01/15 12:08:00;;;;;;;41.88;29.67;;;5.90;80.20;;;;;;5003877;28;20045;-76
2022/01/15 12:10:46;;;;;;;39.80;29.17;;;6.00;79.70;;;;;;5004171;28;20073;-75
2022/01/15 12:13:21;;;;;;;41.10;28.77;;;5.90;79.60;;;;;;5002315;28;20449;-75
2022/01/15 12:16:15;;;;;;;41.75;30.70;;;5.80;79.90;;;;;;5007803;28;20213;-74
2022/01/15 12:18:47;;;;;;;39.75;29.30;;;5.70;79.90;;;;;;5000207;28;20463;-76
2022/01/15 12:21:42;;;;;;;41.50;28.70;;;5.60;80.70;;;;;;5003812;28;20033;-77
2022/01/15 12:24:57;;;;;;;41.47;29.92;;;5.60;80.30;;;;;;5005850;28;20045;-74
2022/01/15 12:27:28;;;;;;;48.30;31.35;;;5.50;80.90;;;;;;5004932;28;20034;-77
2022/01/15 12:30:17;;;;;;;40.67;30.45;;;5.50;81.00;;;;;;4995563;28;20111;-74
2022/01/15 12:32:47;;;;;;;42.70;31.90;;;5.60;81.50;;;;;;5000569;28;20104;-77
2022/01/15 12:35:22;;;;;;;45.15;30.50;;;5.60;81.40;;;;;;4999559;28;20487;-76
2022/01/15 12:38:01;;;;;;;46.40;32.42;;;5.70;81.00;;;;;;5001457;28;20110;-76
2022/01/15 12:40:29;;;;;;;45.97;32.65;;;5.70;80.80;;;;;;4998628;28;20038;-73
2022/01/15 12:42:56;;;;;;;44.75;32.72;;;5.90;81.00;;;;;;4997847;28;20803;-74
2022/01/15 12:45:24;;;;;;;45.53;33.15;;;5.90;80.30;;;;;;5001032;28;20042;-75
2022/01/15 12:47:51;;;;;;;44.97;33.08;;;5.90;80.40;;;;;;4998289;28;20116;-73
2022/01/15 12:50:17;;;;;;;49.65;34.75;;;6.00;79.90;;;;;;4995150;28;20050;-75
2022/01/15 12:52:42;;;;;;;46.78;33.05;;;5.90;79.60;;;;;;4998986;28;20608;-74
2022/01/15 12:55:09;;;;;;;42.70;31.73;;;5.80;80.50;;;;;;4996550;28;20030;-74
2022/01/15 12:57:43;;;;;;;45.25;33.47;;;5.90;81.20;;;;;;4998052;28;20041;-76
2022/01/15 13:00:27;;;;;;;45.97;34.28;;;5.90;80.60;;;;;;5009154;28;20034;-72
2022/01/15 13:02:56;;;;;;;46.20;32.70;;;6.00;80.70;;;;;;5011496;28;20034;-71
2022/01/15 13:05:25;;;;;;;45.05;33.45;;;6.00;80.30;;;;;;4998390;28;20046;-74
2022/01/15 13:07:54;;;;;;;44.58;33.05;;;6.00;80.50;;;;;;4999933;28;20041;-74